createdAt,value
2019-04-16T00:00:51.152Z,95.80
2019-04-16T00:05:59.161Z,96.50
2019-04-16T00:11:09.440Z,96.50
2019-04-16T00:16:14.892Z,96.30
2019-04-16T00:21:47.085Z,96.40
2019-04-16T00:26:52.550Z,97.00
2019-04-16T00:31:59.449Z,97.60
2019-04-16T00:37:04.805Z,97.40
2019-04-16T00:42:11.297Z,97.00
2019-04-16T00:47:35.712Z,97.00
2019-04-16T00:53:00.013Z,96.90
2019-04-16T00:58:19.797Z,97.00
2019-04-16T01:03:24.813Z,97.30
2019-04-16T01:08:53.919Z,97.60
2019-04-16T01:14:00.725Z,97.70
2019-04-16T01:19:10.067Z,97.60
2019-04-16T01:24:34.019Z,97.70
2019-04-16T01:29:39.471Z,97.90
2019-04-16T01:34:55.275Z,98.00
2019-04-16T01:40:21.826Z,98.00
2019-04-16T01:45:29.787Z,98.10
2019-04-16T01:50:35.515Z,98.30
2019-04-16T01:55:42.443Z,98.60
2019-04-16T02:00:47.771Z,98.80
2019-04-16T02:05:54.890Z,98.90
2019-04-16T02:11:00.431Z,98.90
2019-04-16T02:16:25.928Z,99.10
2019-04-16T02:21:32.772Z,99.00
2019-04-16T02:26:38.225Z,98.80
2019-04-16T02:32:02.727Z,98.60
2019-04-16T02:37:27.342Z,98.40
2019-04-16T02:42:33.017Z,98.00
2019-04-16T02:47:41.879Z,97.60
2019-04-16T02:52:50.464Z,97.40
2019-04-16T02:58:01.833Z,97.00
2019-04-16T03:03:09.191Z,96.90
2019-04-16T03:08:14.550Z,96.80
2019-04-16T03:13:22.979Z,96.80
2019-04-16T03:18:28.025Z,96.70
2019-04-16T03:23:36.730Z,96.80
2019-04-16T03:28:40.403Z,96.50
2019-04-16T03:34:05.044Z,96.70
2019-04-16T03:39:22.100Z,96.50
2019-04-16T03:44:38.956Z,96.20
2019-04-16T03:49:56.360Z,96.10
2019-04-16T03:55:03.204Z,96.20
2019-04-16T04:00:27.818Z,96.10
2019-04-16T04:05:35.076Z,96.10
2019-04-16T04:10:52.058Z,96.00
2019-04-16T04:15:58.599Z,96.10
2019-04-16T04:21:04.708Z,96.10
2019-04-16T04:26:29.229Z,96.10
2019-04-16T04:31:53.932Z,95.90
2019-04-16T04:37:11.085Z,95.60
2019-04-16T04:42:28.420Z,95.40
2019-04-16T04:47:34.586Z,95.20
2019-04-16T04:52:40.379Z,94.40
2019-04-16T04:57:45.923Z,93.70
2019-04-16T05:03:15.514Z,92.80
2019-04-16T05:08:33.546Z,91.90
2019-04-16T05:13:39.271Z,91.20
2019-04-16T05:18:44.815Z,90.00
2019-04-16T05:23:50.437Z,88.70
2019-04-16T05:28:57.931Z,87.60
2019-04-16T05:34:06.059Z,87.00
2019-04-16T05:39:10.532Z,86.00
2019-04-16T05:44:35.331Z,84.20
2019-04-16T05:49:40.763Z,82.20
2019-04-16T05:55:01.522Z,82.20
2019-04-16T06:00:10.497Z,80.10
2019-04-16T06:05:37.915Z,77.80
2019-04-16T06:10:43.268Z,76.50
2019-04-16T06:15:54.089Z,75.80
2019-04-16T06:21:06.870Z,74.20
2019-04-16T06:26:35.155Z,72.70
2019-04-16T06:31:48.948Z,71.00
2019-04-16T06:37:20.976Z,70.30
2019-04-16T06:42:47.516Z,67.80
2019-04-16T06:48:00.675Z,67.20
2019-04-16T06:53:26.537Z,65.00
2019-04-16T06:58:50.339Z,63.00
2019-04-16T07:03:59.641Z,61.60
2019-04-16T07:09:23.421Z,61.60
2019-04-16T07:14:27.517Z,58.30
2019-04-16T07:19:33.635Z,55.80
2019-04-16T07:24:39.926Z,54.80
2019-04-16T07:35:21.837Z,52.10
2019-04-16T07:40:31.716Z,50.90
2019-04-16T07:45:51.755Z,49.60
2019-04-16T07:51:01.568Z,46.60
2019-04-16T07:56:14.440Z,44.00
2019-04-16T08:01:22.115Z,43.90
2019-04-16T08:06:27.837Z,41.50
2019-04-16T08:11:34.896Z,38.30
2019-04-16T08:16:47.283Z,36.60
2019-04-16T08:22:08.247Z,36.70
2019-04-16T08:27:17.821Z,35.50
2019-04-16T08:32:20.979Z,33.80
2019-04-16T08:37:26.400Z,32.80
2019-04-16T08:42:43.889Z,31.10
2019-04-16T08:47:38.896Z,33.40
2019-04-16T08:52:44.457Z,33.60
2019-04-16T08:57:50.059Z,31.20
2019-04-16T09:02:58.071Z,31.70
2019-04-16T09:08:12.384Z,31.80
2019-04-16T09:13:24.541Z,30.70
2019-04-16T09:18:49.936Z,29.70
2019-04-16T09:24:14.056Z,28.30
2019-04-16T09:29:39.141Z,28.80
2019-04-16T09:35:08.130Z,28.50
2019-04-16T09:40:15.977Z,28.40
2019-04-16T09:45:12.329Z,28.90
2019-04-16T09:50:17.897Z,27.40
2019-04-16T09:55:23.497Z,28.40
2019-04-16T10:00:36.339Z,28.40
2019-04-16T10:05:41.329Z,26.60
2019-04-16T10:10:46.399Z,27.00
2019-04-16T10:15:51.667Z,27.60
2019-04-16T10:20:57.016Z,27.80
2019-04-16T10:26:01.970Z,27.40
2019-04-16T10:31:07.838Z,27.40
2019-04-16T10:36:13.487Z,26.70
2019-04-16T10:47:00.429Z,25.90
2019-04-16T10:52:07.759Z,25.90
2019-04-16T10:57:27.080Z,25.80
2019-04-16T11:02:36.797Z,25.40
2019-04-16T11:07:44.050Z,24.80
2019-04-16T11:12:49.411Z,24.00
2019-04-16T11:17:54.990Z,23.50
2019-04-16T11:23:00.214Z,24.60
2019-04-16T11:28:05.442Z,23.20
2019-04-16T11:33:10.950Z,23.20
2019-04-16T11:38:17.729Z,23.50
2019-04-16T11:43:23.228Z,24.50
2019-04-16T11:48:28.683Z,23.40
2019-04-16T11:53:34.510Z,24.90
2019-04-16T11:58:46.145Z,25.90
2019-04-16T12:03:56.124Z,25.30
2019-04-16T12:09:17.152Z,24.50
2019-04-16T12:14:41.811Z,24.20
2019-04-16T12:19:47.126Z,23.30
2019-04-16T12:25:10.757Z,24.80
2019-04-16T12:30:32.040Z,24.70
2019-04-16T12:35:45.527Z,24.40
2019-04-16T12:41:09.045Z,23.80
2019-04-16T12:46:18.845Z,22.80
2019-04-16T12:51:28.060Z,22.90
2019-04-16T12:56:52.479Z,23.30
2019-04-16T13:01:59.439Z,23.00
2019-04-16T13:07:09.481Z,23.20
2019-04-16T13:12:22.999Z,23.30
2019-04-16T13:17:39.240Z,23.40
2019-04-16T13:22:54.839Z,24.60
2019-04-16T13:28:20.350Z,24.50
2019-04-16T13:33:26.885Z,24.90
2019-04-16T13:38:37.560Z,24.90
2019-04-16T13:43:51.966Z,24.60
2019-04-16T13:48:59.619Z,25.20
2019-04-16T13:54:10.524Z,24.40
2019-04-16T14:04:21.565Z,24.40
2019-04-16T14:09:27.359Z,25.70
2019-04-16T14:14:32.706Z,24.40
2019-04-16T14:19:38.812Z,24.60
2019-04-16T14:24:44.354Z,24.60
2019-04-16T14:29:49.882Z,24.20
2019-04-16T14:34:56.922Z,24.80
2019-04-16T14:40:15.642Z,24.40
2019-04-16T14:45:22.763Z,25.10
2019-04-16T14:50:28.921Z,24.50
2019-04-16T14:55:59.031Z,24.70
2019-04-16T15:00:53.123Z,24.80
2019-04-16T15:06:12.133Z,25.80
2019-04-16T15:11:35.530Z,25.30
2019-04-16T15:16:45.482Z,25.50
2019-04-16T15:21:58.695Z,26.60
2019-04-16T15:27:17.840Z,26.90
2019-04-16T15:32:30.705Z,27.50
2019-04-16T15:37:46.717Z,26.90
2019-04-16T15:42:56.353Z,27.10
2019-04-16T15:48:18.080Z,27.40
2019-04-16T15:53:23.668Z,27.00
2019-04-16T15:58:32.539Z,27.70
2019-04-16T16:03:48.612Z,28.60
2019-04-16T16:08:58.146Z,28.00
2019-04-16T16:14:03.901Z,28.30
2019-04-16T16:19:12.046Z,28.70
2019-04-16T16:24:16.555Z,30.00
2019-04-16T16:29:22.157Z,29.60
2019-04-16T16:34:27.671Z,30.00
2019-04-16T16:39:33.424Z,30.90
2019-04-16T16:44:39.042Z,30.60
2019-04-16T16:49:44.499Z,30.50
2019-04-16T16:54:51.187Z,30.80
2019-04-16T17:00:03.899Z,31.10
2019-04-16T17:05:10.819Z,31.20
2019-04-16T17:10:27.977Z,32.00
2019-04-16T17:15:33.040Z,32.90
2019-04-16T17:20:38.308Z,34.00
2019-04-16T17:25:45.121Z,37.70
2019-04-16T17:30:50.377Z,39.30
2019-04-16T17:35:55.794Z,40.60
2019-04-16T17:41:05.128Z,41.40
2019-04-16T17:51:53.510Z,42.70
2019-04-16T17:57:22.947Z,43.20
2019-04-16T18:02:28.082Z,44.30
2019-04-16T18:07:38.925Z,45.40
2019-04-16T18:12:56.483Z,45.80
2019-04-16T18:18:03.308Z,46.50
2019-04-16T18:23:10.342Z,47.40
2019-04-16T18:28:25.826Z,48.30
2019-04-16T18:33:32.459Z,49.00
2019-04-16T18:39:15.193Z,50.30
2019-04-16T18:44:37.325Z,51.10
2019-04-16T18:50:05.999Z,51.70
2019-04-16T18:55:11.674Z,52.40
2019-04-16T19:05:57.045Z,53.70
2019-04-16T19:11:02.851Z,55.00
2019-04-16T19:16:08.208Z,55.80
2019-04-16T19:21:13.482Z,57.10
2019-04-16T19:26:18.722Z,58.60
2019-04-16T19:31:24.216Z,59.40
2019-04-16T19:36:49.025Z,60.50
2019-04-16T19:41:57.204Z,61.40
2019-04-16T19:47:01.308Z,62.50
2019-04-16T19:52:06.592Z,63.30
2019-04-16T19:57:12.087Z,63.90
2019-04-16T20:02:17.902Z,64.00
2019-04-16T20:07:23.072Z,64.20
2019-04-16T20:12:28.866Z,64.40
2019-04-16T20:17:34.239Z,64.80
2019-04-16T20:22:39.476Z,65.20
2019-04-16T20:27:44.438Z,65.80
2019-04-16T20:32:49.790Z,66.40
2019-04-16T20:37:55.297Z,66.90
2019-04-16T20:43:01.163Z,67.40
2019-04-16T20:48:09.107Z,69.00
2019-04-16T20:53:13.086Z,67.90
2019-04-16T20:58:18.414Z,68.30
2019-04-16T21:03:23.630Z,68.40
2019-04-16T21:08:28.843Z,68.50
2019-04-16T21:13:34.019Z,68.60
2019-04-16T21:18:39.606Z,69.00
2019-04-16T21:23:44.732Z,69.50
2019-04-16T21:28:55.009Z,70.00
2019-04-16T21:34:24.159Z,70.60
2019-04-16T21:39:26.946Z,71.00
2019-04-16T21:44:31.831Z,72.20
2019-04-16T21:49:38.929Z,72.80
2019-04-16T21:54:43.832Z,72.20
2019-04-16T21:59:50.319Z,72.30
2019-04-16T22:04:56.204Z,72.00
2019-04-16T22:10:03.134Z,72.00
2019-04-16T22:15:08.754Z,72.10
2019-04-16T22:20:13.750Z,72.70
2019-04-16T22:25:19.311Z,72.60
2019-04-16T22:30:24.463Z,73.20
2019-04-16T22:35:31.813Z,73.40
2019-04-16T22:40:44.136Z,73.30
2019-04-16T22:45:52.365Z,73.50
2019-04-16T22:50:57.880Z,73.50
2019-04-16T22:56:03.270Z,73.70
2019-04-16T23:01:08.791Z,73.20
2019-04-16T23:06:14.051Z,73.40
2019-04-16T23:11:39.059Z,73.00
2019-04-16T23:16:44.803Z,73.30
2019-04-16T23:21:50.105Z,73.60
2019-04-16T23:26:55.471Z,73.80
2019-04-16T23:32:00.750Z,73.90
2019-04-16T23:37:08.738Z,74.30
2019-04-16T23:42:18.830Z,74.70
2019-04-16T23:47:22.209Z,74.60
2019-04-16T23:52:34.525Z,74.30
2019-04-16T23:57:57.559Z,74.10
